Time;durP1;ratioP1;P1;durP2;ratioP2;P2;SDS_P1;SDS_P2;PMS_P1;PMS_P2;Temp;Humidity;BMP_temperature;BMP_pressure;BME280_temperature;BME280_humidity;BME280_pressure;Samples;Min_cycle;Max_cycle;Signal;HPM_P1;HPM_P2
2023/12/12 00:00:05;;;;;;;5.13;1.80;;;;;;;9.17;50.66;100478.59;4905999;29;20051;-74
2023/12/12 00:02:39;;;;;;;5.38;2.00;;;;;;;9.15;50.75;100472.44;4924277;29;20120;-74
2023/12/12 00:05:07;;;;;;;6.07;2.50;;;;;;;9.15;50.88;100466.97;4925637;29;20043;-74
2023/12/12 00:07:35;;;;;;;6.00;1.85;;;;;;;9.15;51.28;100464.25;4931454;29;20052;-73
2023/12/12 00:10:04;;;;;;;5.00;1.92;;;;;;;9.15;51.22;100472.44;4920675;29;20071;-73
2023/12/12 00:12:32;;;;;;;5.18;2.25;;;;;;;9.14;50.66;100467.97;4910723;29;20047;-74
2023/12/12 00:15:00;;;;;;;5.20;1.88;;;;;;;9.14;50.94;100463.38;4907748;29;20060;-74
2023/12/12 00:17:30;;;;;;;6.78;2.03;;;;;;;9.14;50.50;100457.91;4915269;29;20055;-74
2023/12/12 00:19:58;;;;;;;7.65;1.88;;;;;;;9.12;50.71;100457.19;4932778;29;20058;-73
2023/12/12 00:22:26;;;;;;;5.97;1.98;;;;;;;9.12;51.13;100459.03;4922636;29;20402;-73
2023/12/12 00:24:54;;;;;;;4.43;1.80;;;;;;;9.11;51.06;100452.72;4922414;29;20525;-74
2023/12/12 00:27:22;;;;;;;5.13;1.70;;;;;;;9.12;50.63;100450.84;4920890;29;20048;-75
2023/12/12 00:29:50;;;;;;;6.75;2.03;;;;;;;9.12;50.97;100449.00;4906808;29;20059;-75
2023/12/12 00:32:18;;;;;;;6.72;2.17;;;;;;;9.12;51.12;100449.00;4923150;29;20130;-74
2023/12/12 00:34:47;;;;;;;6.18;2.25;;;;;;;9.13;50.75;100452.59;4923269;29;20051;-75
2023/12/12 00:37:15;;;;;;;8.70;2.17;;;;;;;9.13;50.90;100441.66;4923534;29;20047;-74
2023/12/12 00:39:43;;;;;;;4.95;2.00;;;;;;;9.11;50.80;100441.78;4924608;29;20064;-75
2023/12/12 00:42:11;;;;;;;4.38;1.85;;;;;;;9.13;51.05;100442.53;4923652;29;20103;-75
2023/12/12 00:44:39;;;;;;;4.03;1.58;;;;;;;9.12;50.84;100446.25;4910159;29;20040;-74
2023/12/12 00:47:07;;;;;;;4.43;1.80;;;;;;;9.12;50.91;100446.25;4922799;29;20508;-74
2023/12/12 00:49:35;;;;;;;6.35;1.75;;;;;;;9.13;50.91;100447.13;4922956;29;20142;-74
2023/12/12 00:52:05;;;;;;;5.63;1.95;;;;;;;9.14;51.45;100443.41;4923722;29;20584;-75
2023/12/12 00:54:33;;;;;;;6.47;1.65;;;;;;;9.13;51.41;100438.94;4906399;29;20044;-74
2023/12/12 00:57:01;;;;;;;5.00;1.73;;;;;;;9.14;51.17;100440.66;4924940;29;20071;-74
2023/12/12 00:59:29;;;;;;;6.53;2.08;;;;;;;9.13;51.48;100437.06;4917604;29;20596;-75
2023/12/12 01:01:56;;;;;;;6.80;1.92;;;;;;;9.15;50.97;100447.88;4921050;29;20058;-74
2023/12/12 01:04:24;;;;;;;5.35;1.70;;;;;;;9.14;51.54;100441.53;4907491;29;20561;-74
2023/12/12 01:06:52;;;;;;;4.93;1.75;;;;;;;9.13;51.63;100442.53;4930908;29;20430;-74
2023/12/12 01:09:21;;;;;;;3.53;1.50;;;;;;;9.15;50.98;100443.28;4920304;29;20067;-74
2023/12/12 01:11:49;;;;;;;4.85;1.92;;;;;;;9.14;51.57;100447.00;4907308;29;20074;-74
2023/12/12 01:14:17;;;;;;;5.57;1.60;;;;;;;9.15;51.42;100436.94;4917176;29;20078;-74
2023/12/12 01:16:45;;;;;;;6.07;1.58;;;;;;;9.14;51.45;100437.94;4922678;29;20134;-75
2023/12/12 01:19:13;;;;;;;8.32;1.88;;;;;;;9.14;51.25;100440.66;4905628;29;20058;-75
2023/12/12 01:21:42;;;;;;;5.25;1.70;;;;;;;9.14;51.44;100440.66;4932068;29;20075;-74
2023/12/12 01:24:09;;;;;;;5.20;1.88;;;;;;;9.14;51.72;100438.81;4923178;29;20058;-75
2023/12/12 01:26:39;;;;;;;7.15;2.20;;;;;;;9.15;51.31;100434.22;4923837;29;20079;-74
2023/12/12 01:29:07;;;;;;;7.03;1.80;;;;;;;9.13;51.28;100438.94;4927024;29;20044;-74
2023/12/12 01:31:34;;;;;;;6.05;1.90;;;;;;;9.13;51.10;100438.94;4905858;29;20047;-74
2023/12/12 01:34:02;;;;;;;7.18;2.35;;;;;;;9.13;51.81;100449.84;4913201;29;20510;-75
2023/12/12 01:36:30;;;;;;;5.55;1.92;;;;;;;9.13;51.77;100442.53;4922961;29;20718;-74
2023/12/12 01:38:58;;;;;;;5.20;1.80;;;;;;;9.13;51.71;100436.22;4903796;29;20082;-74
2023/12/12 01:41:26;;;;;;;6.70;1.90;;;;;;;9.13;51.44;100428.03;4925658;29;20122;-75
2023/12/12 01:43:55;;;;;;;8.38;2.00;;;;;;;9.14;51.38;100430.63;4903356;29;20044;-74
2023/12/12 01:46:23;;;;;;;8.25;2.97;;;;;;;9.14;51.73;100433.34;4918971;29;20052;-74
2023/12/12 01:48:52;;;;;;;5.20;1.55;;;;;;;9.14;51.47;100429.75;4920039;29;20051;-74
2023/12/12 01:51:21;;;;;;;6.47;1.88;;;;;;;9.13;51.84;100428.88;4903389;29;20630;-75
2023/12/12 01:53:51;;;;;;;7.22;2.08;;;;;;;9.14;52.04;100430.63;4904016;29;20079;-75
2023/12/12 01:56:20;;;;;;;6.05;2.10;;;;;;;9.13;51.88;100430.75;4919875;29;20130;-75
2023/12/12 01:58:51;;;;;;;7.22;2.03;;;;;;;9.13;51.55;100433.47;4905669;29;20056;-75
2023/12/12 02:01:22;;;;;;;9.40;2.42;;;;;;;9.12;51.32;100427.16;4916844;29;20417;-74
2023/12/12 02:03:52;;;;;;;6.97;2.20;;;;;;;9.12;51.26;100431.75;4929376;29;20408;-75
2023/12/12 02:06:22;;;;;;;8.35;2.10;;;;;;;9.11;51.49;100425.41;4930725;28;20035;-74
2023/12/12 02:08:51;;;;;;;6.82;2.17;;;;;;;9.10;51.84;100421.81;4919732;29;20044;-74
2023/12/12 02:11:19;;;;;;;5.50;2.10;;;;;;;9.09;51.91;100421.94;4905139;29;20139;-73
2023/12/12 02:13:48;;;;;;;6.28;1.90;;;;;;;9.07;51.94;100422.13;4920652;29;20036;-74
2023/12/12 02:16:17;;;;;;;5.65;2.08;;;;;;;9.08;51.56;100423.81;4918597;29;20485;-73
2023/12/12 02:18:46;;;;;;;7.10;2.10;;;;;;;9.09;51.81;100425.56;4920693;29;20074;-73
2023/12/12 02:21:20;;;;;;;10.15;3.00;;;;;;;9.09;51.68;100422.81;4903931;29;20445;-76
2023/12/12 02:23:48;;;;;;;6.38;1.98;;;;;;;9.07;51.89;100418.53;4902690;29;20048;-74
2023/12/12 02:26:16;;;;;;;7.97;2.15;;;;;;;9.08;51.71;100428.44;4921450;29;20465;-74
2023/12/12 02:28:45;;;;;;;7.35;3.13;;;;;;;9.07;51.71;100429.44;4923537;29;20390;-74
2023/12/12 02:31:14;;;;;;;6.40;2.42;;;;;;;9.07;51.55;100427.56;4919102;29;20143;-73
2023/12/12 02:33:42;;;;;;;5.53;1.95;;;;;;;9.07;51.86;100429.44;4911241;29;20052;-74
2023/12/12 02:36:10;;;;;;;7.90;2.40;;;;;;;9.05;51.54;100432.28;4905703;29;20126;-74
2023/12/12 02:38:39;;;;;;;6.93;1.95;;;;;;;9.07;51.84;100434.91;4921011;29;20090;-73
2023/12/12 02:41:08;;;;;;;8.70;2.03;;;;;;;9.06;51.78;100435.88;4902538;29;20508;-74
2023/12/12 02:43:38;;;;;;;8.93;2.10;;;;;;;9.06;51.93;100435.88;4905152;29;20099;-74
2023/12/12 02:46:06;;;;;;;5.55;1.85;;;;;;;9.05;51.70;100424.09;4921967;29;20056;-74
2023/12/12 02:48:34;;;;;;;7.68;2.72;;;;;;;9.05;51.70;100423.25;4921963;29;20082;-74
2023/12/12 02:51:02;;;;;;;6.68;1.95;;;;;;;9.03;51.66;100420.63;4923403;29;20134;-74
2023/12/12 02:53:30;;;;;;;5.55;1.90;;;;;;;9.05;51.84;100431.44;4921416;29;20077;-74
2023/12/12 02:56:00;;;;;;;7.97;2.38;;;;;;;9.05;51.83;100426.84;4919077;29;20074;-73
2023/12/12 02:58:27;;;;;;;6.50;2.25;;;;;;;9.04;52.02;100435.16;4919636;29;20050;-73
2023/12/12 03:00:55;;;;;;;8.75;2.30;;;;;;;9.03;51.47;100428.81;4918992;29;20151;-74
2023/12/12 03:03:23;;;;;;;8.43;2.00;;;;;;;9.04;51.85;100433.28;4917500;29;20056;-74
2023/12/12 03:05:51;;;;;;;6.90;2.30;;;;;;;9.03;51.99;100431.56;4923693;29;20115;-74
2023/12/12 03:08:19;;;;;;;9.23;2.40;;;;;;;9.02;51.82;100427.09;4921462;29;20086;-74
2023/12/12 03:10:48;;;;;;;7.95;2.40;;;;;;;9.03;51.76;100420.63;4920534;29;20055;-74
2023/12/12 03:13:17;;;;;;;7.65;2.60;;;;;;;9.04;51.57;100424.22;4920740;29;20059;-74
2023/12/12 03:15:45;;;;;;;8.10;2.70;;;;;;;9.01;51.68;100425.34;4920507;29;20047;-74
2023/12/12 03:18:13;;;;;;;10.02;2.85;;;;;;;9.01;51.87;100428.09;4921170;29;20593;-74
2023/12/12 03:20:41;;;;;;;11.10;2.60;;;;;;;9.02;51.59;100426.22;4922982;29;20390;-74
2023/12/12 03:23:09;;;;;;;7.72;2.80;;;;;;;9.00;51.58;100423.63;4905472;29;20514;-74
2023/12/12 03:25:37;;;;;;;9.30;2.63;;;;;;;9.00;51.97;100426.34;4919553;29;20138;-74
2023/12/12 03:28:05;;;;;;;7.82;2.35;;;;;;;9.00;51.83;100418.16;4918527;29;20047;-73
2023/12/12 03:30:34;;;;;;;8.43;2.28;;;;;;;9.01;51.59;100419.03;4920777;29;20051;-74
2023/12/12 03:33:02;;;;;;;9.43;2.88;;;;;;;8.98;51.91;100413.88;4904893;29;20082;-74
2023/12/12 03:35:30;;;;;;;8.00;2.67;;;;;;;8.97;51.83;100410.28;4902819;29;20138;-74
2023/12/12 03:37:58;;;;;;;9.45;3.10;;;;;;;8.96;51.77;100418.59;4921560;29;20080;-73
2023/12/12 03:40:26;;;;;;;8.43;2.47;;;;;;;8.95;51.74;100397.75;4922466;29;20576;-74
2023/12/12 03:42:53;;;;;;;7.30;2.30;;;;;;;8.94;51.99;100404.19;4908206;29;20123;-74
2023/12/12 03:45:21;;;;;;;9.25;2.58;;;;;;;8.93;51.97;100407.94;4919191;29;20048;-74
2023/12/12 03:47:51;;;;;;;7.80;2.38;;;;;;;8.92;51.75;100409.78;4924498;29;20047;-73
2023/12/12 03:50:19;;;;;;;5.72;2.20;;;;;;;8.90;51.99;100408.22;4921988;29;20088;-74
2023/12/12 03:52:47;;;;;;;7.78;2.53;;;;;;;8.88;51.57;100399.28;4927313;29;20522;-74
2023/12/12 03:55:15;;;;;;;8.27;2.42;;;;;;;8.87;52.07;100406.63;4928093;28;20400;-73
2023/12/12 03:57:43;;;;;;;8.55;2.95;;;;;;;8.85;51.72;100394.97;4924905;29;20070;-74
2023/12/12 04:00:12;;;;;;;10.68;2.60;;;;;;;8.84;52.14;100401.41;4922132;29;20523;-73
2023/12/12 04:02:40;;;;;;;9.93;2.85;;;;;;;8.81;51.87;100390.78;4921868;29;20035;-73
2023/12/12 04:05:10;;;;;;;7.20;2.22;;;;;;;8.81;52.17;100387.19;4926439;29;20450;-73
2023/12/12 04:07:38;;;;;;;8.85;2.67;;;;;;;8.77;51.74;100386.59;4925645;29;20143;-73
2023/12/12 04:10:08;;;;;;;6.82;2.08;;;;;;;8.78;51.97;100393.78;4926328;29;20416;-73
2023/12/12 04:12:36;;;;;;;8.63;2.25;;;;;;;8.74;51.60;100384.13;4911241;29;20036;-73
2023/12/12 04:15:05;;;;;;;6.53;2.67;;;;;;;8.73;51.81;100384.28;4915207;29;20058;-73
2023/12/12 04:17:33;;;;;;;6.82;2.30;;;;;;;8.70;51.89;100374.47;4929795;29;20067;-73
2023/12/12 04:20:01;;;;;;;9.13;2.70;;;;;;;8.69;51.92;100367.28;4932515;29;20047;-74
2023/12/12 04:22:31;;;;;;;9.57;2.58;;;;;;;8.68;51.44;100362.81;4932558;29;20052;-74
2023/12/12 04:24:59;;;;;;;10.02;2.90;;;;;;;8.65;51.94;100361.25;4933048;29;20051;-73
2023/12/12 04:27:27;;;;;;;6.75;2.55;;;;;;;8.62;51.77;100353.31;4933381;29;20071;-73
2023/12/12 04:29:55;;;;;;;9.30;2.92;;;;;;;8.60;51.82;100344.41;4933618;29;20537;-73
2023/12/12 04:32:23;;;;;;;9.18;2.55;;;;;;;8.58;51.70;100349.16;4916683;29;20134;-73
2023/12/12 04:34:51;;;;;;;9.23;2.65;;;;;;;8.56;51.45;100342.09;4912135;29;20498;-73
2023/12/12 04:37:19;;;;;;;9.02;2.20;;;;;;;8.53;51.63;100345.94;4932370;29;20456;-74
2023/12/12 04:39:48;;;;;;;8.60;2.30;;;;;;;8.54;51.73;100344.09;4915908;29;20043;-73
2023/12/12 04:42:16;;;;;;;8.88;2.58;;;;;;;8.52;52.10;100340.63;4908427;29;20306;-73
2023/12/12 04:44:44;;;;;;;8.43;2.70;;;;;;;8.50;52.30;100340.78;4915937;29;20098;-74
2023/12/12 04:47:13;;;;;;;9.88;3.00;;;;;;;8.50;51.95;100345.38;4927105;29;20079;-74
2023/12/12 04:49:41;;;;;;;9.48;2.40;;;;;;;8.49;51.76;100340.91;4915069;29;20385;-73
2023/12/12 04:52:09;;;;;;;7.68;2.58;;;;;;;8.48;52.17;100340.03;4915440;29;20130;-73
2023/12/12 04:54:37;;;;;;;6.55;2.55;;;;;;;8.47;52.08;100334.72;4932136;29;20114;-74
2023/12/12 04:57:06;;;;;;;9.80;2.60;;;;;;;8.48;52.31;100331.84;4915988;29;20487;-73
2023/12/12 04:59:34;;;;;;;7.85;2.45;;;;;;;8.47;52.17;100334.72;4912964;29;20047;-73
2023/12/12 05:02:06;;;;;;;7.53;2.45;;;;;;;8.46;52.28;100335.72;4929035;29;20079;-74
2023/12/12 05:04:34;;;;;;;5.88;2.05;;;;;;;8.45;52.01;100334.84;4918071;29;20048;-73
2023/12/12 05:07:02;;;;;;;7.28;3.05;;;;;;;8.45;51.96;100331.25;4912302;29;20425;-73
2023/12/12 05:09:30;;;;;;;6.85;2.70;;;;;;;8.44;52.38;100324.94;4930001;29;20055;-73
2023/12/12 05:11:58;;;;;;;8.73;2.78;;;;;;;8.44;52.02;100329.50;4926509;29;20058;-73
2023/12/12 05:14:27;;;;;;;8.02;2.60;;;;;;;8.45;52.20;100323.06;4931654;29;20047;-73
2023/12/12 05:16:55;;;;;;;7.88;2.72;;;;;;;8.44;52.42;100324.06;4922515;29;20410;-74
2023/12/12 05:19:34;;;;;;;6.57;2.28;;;;;;;8.43;52.33;100319.59;4925541;29;20039;-74
2023/12/12 05:22:03;;;;;;;6.35;2.28;;;;;;;8.44;52.23;100330.38;4904276;29;20048;-73
2023/12/12 05:24:31;;;;;;;8.32;2.40;;;;;;;8.46;52.51;100330.25;4929005;29;20044;-74
2023/12/12 05:27:00;;;;;;;6.38;2.50;;;;;;;8.46;52.24;100319.34;4926205;29;20052;-74
2023/12/12 05:29:29;;;;;;;8.05;2.60;;;;;;;8.48;52.09;100317.34;4913049;29;20047;-74
2023/12/12 05:31:58;;;;;;;7.55;2.83;;;;;;;8.45;52.34;100310.31;4907034;29;20048;-74
2023/12/12 05:34:25;;;;;;;8.35;3.15;;;;;;;8.45;52.10;100312.16;4930616;29;20062;-73
2023/12/12 05:36:53;;;;;;;8.98;2.83;;;;;;;8.44;52.23;100305.84;4926798;29;20043;-73
2023/12/12 05:39:21;;;;;;;6.10;2.17;;;;;;;8.44;52.36;100308.56;4910299;29;20071;-74
2023/12/12 05:41:49;;;;;;;9.88;2.60;;;;;;;8.44;52.49;100302.25;4904542;29;20490;-74
2023/12/12 05:44:17;;;;;;;7.85;2.63;;;;;;;8.43;52.45;100300.50;4913950;29;20044;-74
2023/12/12 05:46:46;;;;;;;7.20;2.22;;;;;;;8.43;52.18;100308.69;4924048;29;20140;-73
2023/12/12 05:49:14;;;;;;;9.40;2.53;;;;;;;8.42;52.30;100307.00;4928982;29;20047;-73
2023/12/12 05:51:43;;;;;;;10.10;2.83;;;;;;;8.41;52.33;100300.66;4911547;29;20048;-74
2023/12/12 05:54:11;;;;;;;7.28;2.53;;;;;;;8.41;52.38;100308.00;4927247;29;20040;-74
2023/12/12 05:56:42;;;;;;;11.98;2.72;;;;;;;8.41;52.33;100308.00;4923699;29;20085;-74
2023/12/12 05:59:14;;;;;;;7.68;2.55;;;;;;;8.39;52.00;100302.66;4929325;29;20110;-73
2023/12/12 06:01:42;;;;;;;7.20;2.75;;;;;;;8.40;52.21;100306.25;4904595;29;20048;-74
2023/12/12 06:04:14;;;;;;;6.57;2.45;;;;;;;8.42;52.32;100307.84;4929573;29;20102;-76
2023/12/12 06:06:42;;;;;;;5.57;2.30;;;;;;;8.41;52.44;100314.31;4911731;29;20055;-75
2023/12/12 06:09:12;;;;;;;8.43;2.97;;;;;;;8.43;52.66;100316.88;4930063;29;20501;-75
2023/12/12 06:11:41;;;;;;;5.72;2.30;;;;;;;8.43;52.74;100314.16;4926265;29;20044;-75
2023/12/12 06:14:10;;;;;;;6.93;2.60;;;;;;;8.44;52.71;100314.03;4918751;29;20525;-74
2023/12/12 06:16:38;;;;;;;6.75;2.50;;;;;;;8.46;52.87;100305.72;4907270;29;20043;-74
2023/12/12 06:19:06;;;;;;;9.45;3.22;;;;;;;8.47;52.57;100311.03;4907800;29;20044;-75
2023/12/12 06:21:37;;;;;;;6.57;2.42;;;;;;;8.50;52.67;100309.91;4949222;23;20051;-76
2023/12/12 06:24:07;;;;;;;8.27;2.78;;;;;;;8.48;52.28;100306.44;4953864;28;20047;-76
2023/12/12 06:26:37;;;;;;;11.13;3.13;;;;;;;8.49;52.42;100308.19;4967039;28;20039;-76
2023/12/12 06:29:07;;;;;;;8.25;2.47;;;;;;;8.50;52.24;100310.78;4947932;28;20135;-75
2023/12/12 06:31:35;;;;;;;7.13;2.40;;;;;;;8.51;52.40;100304.28;4940614;28;20055;-75
2023/12/12 06:34:03;;;;;;;7.75;2.50;;;;;;;8.51;52.59;100306.16;4948456;28;20404;-75
2023/12/12 06:36:32;;;;;;;7.82;2.90;;;;;;;8.52;52.58;100303.31;4966636;28;20061;-73
2023/12/12 06:39:02;;;;;;;7.63;2.83;;;;;;;8.54;52.55;100304.03;4944136;28;20460;-72
2023/12/12 06:41:31;;;;;;;6.38;2.38;;;;;;;8.52;52.04;100300.56;4952782;28;20059;-73
2023/12/12 06:43:59;;;;;;;9.13;2.63;;;;;;;8.52;52.44;100295.13;4965964;28;20043;-73
2023/12/12 06:46:27;;;;;;;6.20;2.40;;;;;;;8.53;52.47;100294.13;4962332;28;20050;-72
2023/12/12 06:48:55;;;;;;;5.90;2.05;;;;;;;8.54;52.45;100289.53;4958337;28;20035;-70
2023/12/12 06:51:23;;;;;;;8.30;2.13;;;;;;;8.53;52.38;100291.41;4939984;28;20130;-74
2023/12/12 06:53:52;;;;;;;6.55;2.35;;;;;;;8.52;52.40;100291.53;4957457;28;20078;-73
2023/12/12 06:56:22;;;;;;;6.63;2.67;;;;;;;8.54;51.82;100287.69;4965131;28;20118;-74
2023/12/12 06:58:50;;;;;;;8.95;2.50;;;;;;;8.52;51.75;100280.63;4953760;28;20049;-72
2023/12/12 07:01:18;;;;;;;10.93;3.60;;;;;;;8.51;51.75;100278.88;4955174;28;20046;-72
2023/12/12 07:03:46;;;;;;;9.05;3.17;;;;;;;8.50;51.99;100274.47;4961466;28;20559;-73
2023/12/12 07:06:14;;;;;;;7.28;2.97;;;;;;;8.48;52.18;100271.88;4937034;28;20122;-73
2023/12/12 07:08:42;;;;;;;8.82;3.20;;;;;;;8.48;52.01;100273.72;4954010;28;20126;-73
2023/12/12 07:11:10;;;;;;;9.30;2.50;;;;;;;8.48;52.07;100273.72;4960461;28;20047;-73
2023/12/12 07:13:40;;;;;;;7.55;2.70;;;;;;;8.49;52.01;100270.88;4956558;28;20054;-73
2023/12/12 07:16:10;;;;;;;6.63;2.60;;;;;;;8.48;52.61;100268.28;4960489;28;20137;-74
2023/12/12 07:18:38;;;;;;;9.90;2.97;;;;;;;8.47;52.49;100258.34;4960537;28;20051;-73
2023/12/12 07:21:07;;;;;;;6.82;2.40;;;;;;;8.48;52.50;100255.50;4965647;28;20138;-73
2023/12/12 07:23:35;;;;;;;9.45;2.55;;;;;;;8.48;52.09;100257.38;4960932;28;20055;-73
2023/12/12 07:26:03;;;;;;;10.20;2.80;;;;;;;8.47;52.42;100255.63;4959660;28;20077;-73
2023/12/12 07:28:31;;;;;;;7.63;2.70;;;;;;;8.48;52.30;100249.19;4944947;28;20393;-73
2023/12/12 07:31:02;;;;;;;7.60;2.45;;;;;;;8.49;52.28;100254.50;4955803;28;20066;-72
2023/12/12 07:33:30;;;;;;;6.43;2.58;;;;;;;8.48;52.34;100251.91;4961389;28;20035;-73
2023/12/12 07:35:58;;;;;;;11.05;3.42;;;;;;;8.49;52.36;100253.63;4943913;28;20066;-73
2023/12/12 07:38:26;;;;;;;8.05;2.45;;;;;;;8.48;51.92;100251.91;4944220;28;20578;-71
2023/12/12 07:40:54;;;;;;;8.85;2.85;;;;;;;8.48;52.43;100246.44;4942879;28;20137;-74
2023/12/12 07:43:22;;;;;;;7.57;2.53;;;;;;;8.48;51.81;100246.44;4943819;28;20062;-73
2023/12/12 07:45:50;;;;;;;7.55;2.42;;;;;;;8.48;52.29;100243.72;4970553;28;20050;-73
2023/12/12 07:48:19;;;;;;;8.23;2.95;;;;;;;8.49;51.92;100245.47;4940504;28;20047;-73
2023/12/12 07:50:47;;;;;;;6.85;2.50;;;;;;;8.46;52.31;100235.69;4960798;28;20070;-73
2023/12/12 07:53:15;;;;;;;9.82;2.80;;;;;;;8.46;51.89;100232.09;4959069;28;20047;-74
2023/12/12 07:55:43;;;;;;;9.32;2.90;;;;;;;8.47;52.41;100233.81;4957413;28;20139;-72
2023/12/12 07:58:11;;;;;;;10.75;2.92;;;;;;;8.46;52.03;100232.94;4947899;28;20069;-72
2023/12/12 08:00:39;;;;;;;9.55;2.80;;;;;;;8.47;52.05;100233.81;4957863;28;20047;-72
2023/12/12 08:03:08;;;;;;;9.98;2.88;;;;;;;8.47;52.15;100234.69;4960258;28;20052;-72
2023/12/12 08:05:37;;;;;;;9.23;2.60;;;;;;;8.49;52.24;100232.69;4956261;28;20055;-72
2023/12/12 08:08:06;;;;;;;8.75;2.67;;;;;;;8.49;51.88;100227.22;4961680;28;20054;-72
2023/12/12 08:10:35;;;;;;;11.88;2.80;;;;;;;8.47;52.00;100222.91;4958804;28;20066;-72
2023/12/12 08:13:04;;;;;;;7.40;2.63;;;;;;;8.49;52.14;100229.97;4963571;28;20069;-72
2023/12/12 08:15:32;;;;;;;7.40;2.92;;;;;;;8.48;51.97;100221.91;4957939;28;20102;-72
2023/12/12 08:18:00;;;;;;;7.78;2.70;;;;;;;8.48;52.32;100225.50;4940716;28;20051;-72
2023/12/12 08:20:28;;;;;;;8.95;2.90;;;;;;;8.49;52.04;100234.56;4945395;28;20516;-73
2023/12/12 08:22:57;;;;;;;8.48;2.90;;;;;;;8.50;52.21;100226.25;4944160;28;20508;-72
2023/12/12 08:25:25;;;;;;;9.43;3.17;;;;;;;8.49;52.33;100221.78;4957027;28;20245;-73
2023/12/12 08:27:54;;;;;;;6.72;2.92;;;;;;;8.50;52.49;100228.97;4954652;28;20264;-73
2023/12/12 08:30:22;;;;;;;9.07;2.65;;;;;;;8.51;52.60;100227.94;4961702;28;20047;-73
2023/12/12 08:32:50;;;;;;;9.88;3.05;;;;;;;8.51;52.46;100227.94;4964307;28;20061;-73
2023/12/12 08:35:18;;;;;;;8.45;3.42;;;;;;;8.52;52.30;100223.34;4956658;28;20114;-73
2023/12/12 08:37:46;;;;;;;7.20;2.97;;;;;;;8.54;52.47;100226.81;4946273;29;20277;-72
2023/12/12 08:40:15;;;;;;;7.72;2.90;;;;;;;8.54;51.99;100219.50;4959407;28;20412;-73
2023/12/12 08:42:43;;;;;;;8.30;2.65;;;;;;;8.56;52.72;100224.81;4963576;28;20055;-72
2023/12/12 08:45:10;;;;;;;8.77;3.25;;;;;;;8.55;52.15;100223.09;4961998;28;20325;-73
2023/12/12 08:47:38;;;;;;;10.77;3.00;;;;;;;8.57;52.50;100221.97;4952078;28;20081;-72
2023/12/12 08:50:09;;;;;;;8.50;2.55;;;;;;;8.58;52.51;100220.97;4942131;28;20066;-73
2023/12/12 08:52:37;;;;;;;6.72;3.17;;;;;;;8.59;52.66;100222.66;4942253;28;20046;-73
2023/12/12 08:55:10;;;;;;;6.65;2.63;;;;;;;8.63;52.49;100223.25;4939673;28;20050;-73
2023/12/12 08:57:40;;;;;;;7.80;3.22;;;;;;;8.62;52.03;100221.53;4958353;28;20592;-73
2023/12/12 09:00:10;;;;;;;9.38;2.60;;;;;;;8.63;52.51;100217.81;4942934;28;20508;-72
2023/12/12 09:02:39;;;;;;;6.63;2.67;;;;;;;8.63;52.43;100213.22;4959570;28;20122;-72
2023/12/12 09:05:08;;;;;;;6.50;2.75;;;;;;;8.64;52.09;100206.75;4947374;28;20136;-72
2023/12/12 09:07:36;;;;;;;6.82;2.70;;;;;;;8.66;52.13;100209.38;4959641;28;20079;-73
2023/12/12 09:10:06;;;;;;;8.73;3.00;;;;;;;8.66;52.51;100206.63;4935799;28;20392;-73
2023/12/12 09:12:35;;;;;;;7.75;2.90;;;;;;;8.68;52.49;100199.16;4958475;28;20074;-73
2023/12/12 09:15:05;;;;;;;6.15;2.70;;;;;;;8.70;52.58;100188.97;4962256;28;20114;-73
2023/12/12 09:17:33;;;;;;;12.30;2.80;;;;;;;8.70;52.91;100188.97;4954016;28;20058;-72
2023/12/12 09:20:02;;;;;;;7.68;2.50;;;;;;;8.74;52.88;100186.84;4942195;28;20051;-73
2023/12/12 09:22:31;;;;;;;9.50;3.42;;;;;;;8.76;52.71;100191.13;4952397;28;20102;-72
2023/12/12 09:25:00;;;;;;;9.73;3.00;;;;;;;8.78;52.91;100180.94;4955583;28;20043;-73
2023/12/12 09:27:28;;;;;;;6.55;2.38;;;;;;;8.81;53.03;100177.97;4944110;28;20106;-72
2023/12/12 09:29:56;;;;;;;11.27;2.92;;;;;;;8.83;52.51;100165.03;4945672;28;20055;-73
2023/12/12 09:32:25;;;;;;;10.98;2.80;;;;;;;8.88;52.33;100161.88;4942832;28;20046;-72
2023/12/12 09:34:53;;;;;;;8.23;2.67;;;;;;;8.88;52.62;100157.28;4967152;28;20050;-72
2023/12/12 09:37:23;;;;;;;7.28;2.70;;;;;;;8.91;52.73;100148.84;4946499;28;20057;-73
2023/12/12 09:39:51;;;;;;;6.70;2.58;;;;;;;8.94;52.84;100145.81;4952382;28;20043;-72
2023/12/12 09:42:24;;;;;;;9.23;2.83;;;;;;;8.98;52.22;100152.72;4944432;28;20468;-72
2023/12/12 09:44:59;;;;;;;8.50;2.70;;;;;;;9.02;52.44;100145.09;4956094;28;20501;-73
2023/12/12 09:47:30;;;;;;;11.02;2.72;;;;;;;9.06;52.44;100143.81;4951842;28;20047;-72
2023/12/12 09:50:00;;;;;;;7.07;2.72;;;;;;;9.08;52.74;100134.47;4959072;28;20584;-72
2023/12/12 09:52:30;;;;;;;5.30;2.20;;;;;;;9.16;52.74;100125.59;4957554;28;20054;-72
2023/12/12 09:54:59;;;;;;;8.40;2.80;;;;;;;9.21;52.48;100125.16;4939832;28;20043;-73
2023/12/12 09:57:29;;;;;;;8.60;2.60;;;;;;;9.25;52.75;100121.97;4948327;28;20050;-73
2023/12/12 09:59:58;;;;;;;6.65;2.50;;;;;;;9.32;52.74;100116.81;4959499;28;20051;-72
2023/12/12 10:02:34;;;;;;;7.90;2.30;;;;;;;9.38;52.16;100110.78;4958902;28;20130;-72
2023/12/12 10:05:03;;;;;;;8.02;2.63;;;;;;;9.42;52.53;100107.63;4945089;28;20066;-72
2023/12/12 10:07:33;;;;;;;6.93;2.47;;;;;;;9.46;51.92;100108.22;4959503;28;20098;-72
2023/12/12 10:10:05;;;;;;;7.28;2.70;;;;;;;9.50;52.11;100108.75;4958237;28;20050;-73
2023/12/12 10:12:33;;;;;;;8.32;2.45;;;;;;;9.53;51.45;100100.28;4956618;28;20130;-72
2023/12/12 10:15:00;;;;;;;7.88;2.53;;;;;;;9.56;51.60;100091.81;4956726;28;20051;-73
2023/12/12 10:17:38;;;;;;;5.07;2.45;;;;;;;9.60;50.85;100087.75;4963600;28;20046;-73
2023/12/12 10:20:08;;;;;;;7.10;2.38;;;;;;;9.60;51.29;100082.28;4955782;28;20059;-73
2023/12/12 10:22:36;;;;;;;7.28;2.85;;;;;;;9.60;51.63;100076.84;4957773;28;20046;-73
2023/12/12 10:25:11;;;;;;;7.50;2.92;;;;;;;9.66;50.82;100070.81;4955695;28;20080;-72
2023/12/12 10:27:42;;;;;;;8.10;2.47;;;;;;;9.65;51.26;100058.16;4960219;28;20049;-72
2023/12/12 10:30:12;;;;;;;6.47;2.33;;;;;;;9.65;51.00;100053.53;4951371;28;20495;-73
2023/12/12 10:32:43;;;;;;;7.72;2.22;;;;;;;9.68;50.84;100050.50;4954835;28;20043;-73
2023/12/12 10:35:11;;;;;;;5.85;2.60;;;;;;;9.67;50.80;100042.44;4953130;28;20063;-73
2023/12/12 10:37:39;;;;;;;7.53;2.78;;;;;;;9.67;50.88;100047.91;4944284;28;20569;-73
2023/12/12 10:40:15;;;;;;;6.03;2.72;;;;;;;9.70;50.74;100040.28;4954538;28;20070;-72
2023/12/12 10:42:44;;;;;;;7.70;2.80;;;;;;;9.68;51.10;100031.38;4961700;28;20066;-72
2023/12/12 10:45:13;;;;;;;8.38;2.67;;;;;;;9.70;50.87;100026.63;4955745;28;20049;-73
2023/12/12 10:47:45;;;;;;;8.65;2.38;;;;;;;9.72;50.59;100023.75;4939950;28;20051;-72
2023/12/12 10:50:15;;;;;;;6.03;2.15;;;;;;;9.69;51.17;100019.44;4966027;28;20051;-72
2023/12/12 10:52:44;;;;;;;7.15;2.20;;;;;;;9.72;51.24;100023.75;4958099;28;20047;-72
2023/12/12 10:55:14;;;;;;;6.90;2.28;;;;;;;9.72;51.06;100021.88;4960728;28;20053;-73
2023/12/12 10:57:44;;;;;;;7.32;2.55;;;;;;;9.74;50.98;100022.56;4960300;28;20501;-72
2023/12/12 11:00:14;;;;;;;7.97;3.03;;;;;;;9.75;50.96;100023.44;4956414;28;20043;-72
2023/12/12 11:02:48;;;;;;;4.93;2.10;;;;;;;9.75;50.65;100010.63;4950653;29;20062;-73
2023/12/12 11:05:17;;;;;;;5.60;2.40;;;;;;;9.76;50.72;100006.91;4964571;28;20053;-73
2023/12/12 11:07:46;;;;;;;7.65;2.38;;;;;;;9.78;51.35;100004.03;4963754;28;20066;-73
2023/12/12 11:10:19;;;;;;;9.38;2.45;;;;;;;9.79;50.86;99992.94;4961079;28;20082;-73
2023/12/12 11:12:51;;;;;;;6.60;2.17;;;;;;;9.79;51.19;99992.09;4947895;28;20054;-73
2023/12/12 11:15:21;;;;;;;6.40;2.28;;;;;;;9.81;51.00;99987.34;4964556;28;20099;-73
2023/12/12 11:17:52;;;;;;;7.57;2.75;;;;;;;9.82;50.76;99976.22;4960515;28;20055;-72
2023/12/12 11:20:21;;;;;;;6.22;2.13;;;;;;;9.82;51.11;99976.22;4965300;28;20047;-73
2023/12/12 11:22:52;;;;;;;5.60;2.05;;;;;;;9.84;50.42;99973.34;4960386;28;20597;-73
2023/12/12 11:25:22;;;;;;;5.05;2.15;;;;;;;9.83;51.00;99967.00;4964401;28;20047;-73
2023/12/12 11:27:53;;;;;;;7.10;2.60;;;;;;;9.84;50.87;99967.88;4967509;28;20046;-72
2023/12/12 11:30:30;;;;;;;4.60;2.10;;;;;;;9.85;50.00;99965.00;4966980;28;20050;-72
2023/12/12 11:33:01;;;;;;;5.75;2.40;;;;;;;9.84;50.57;99960.53;4960605;28;20126;-72
2023/12/12 11:35:30;;;;;;;5.75;2.15;;;;;;;9.84;50.76;99963.28;4965609;28;20080;-72
2023/12/12 11:38:02;;;;;;;4.95;2.13;;;;;;;9.84;50.84;99956.94;4966769;28;20047;-73
2023/12/12 11:40:32;;;;;;;6.47;2.25;;;;;;;9.83;50.75;99958.81;4950061;28;20046;-73